createdAt,value
2018-01-25T00:00:47.535Z,1.1
2018-01-25T00:01:49.145Z,1.0
2018-01-25T00:02:50.760Z,1.1
2018-01-25T00:03:52.383Z,1.1
2018-01-25T00:04:54.000Z,1.1
2018-01-25T00:05:55.613Z,1.0
2018-01-25T00:06:57.226Z,1.0
2018-01-25T00:07:58.842Z,1.0
2018-01-25T00:09:00.454Z,0.9
2018-01-25T00:10:02.069Z,1.1
2018-01-25T00:11:03.687Z,1.0
2018-01-25T00:12:05.300Z,1.0
2018-01-25T00:13:06.912Z,1.1
2018-01-25T00:14:08.527Z,1.1
2018-01-25T00:15:10.138Z,1.1
2018-01-25T00:16:11.754Z,1.0
2018-01-25T00:17:13.371Z,1.0
2018-01-25T00:18:14.988Z,1.1
2018-01-25T00:19:16.601Z,1.1
2018-01-25T00:20:18.215Z,1.0
2018-01-25T00:21:19.827Z,1.0
2018-01-25T00:22:21.440Z,1.1
2018-01-25T00:23:23.055Z,1.1
2018-01-25T00:24:24.671Z,1.0
2018-01-25T00:25:26.287Z,1.1
2018-01-25T00:26:27.902Z,1.0
2018-01-25T00:27:29.514Z,1.1
2018-01-25T00:28:31.128Z,1.3
2018-01-25T00:29:32.742Z,1.1
2018-01-25T00:30:34.360Z,1.2
2018-01-25T00:31:35.974Z,1.1
2018-01-25T00:32:37.590Z,1.2
2018-01-25T00:33:39.205Z,1.3
2018-01-25T00:34:40.820Z,1.2
2018-01-25T00:35:42.432Z,1.1
2018-01-25T00:36:44.046Z,1.2
2018-01-25T00:37:45.660Z,1.3
2018-01-25T00:38:47.277Z,1.3
2018-01-25T00:39:48.893Z,1.4
2018-01-25T00:40:50.507Z,1.2
2018-01-25T00:41:52.120Z,1.1
2018-01-25T00:42:53.739Z,1.2
2018-01-25T00:43:55.353Z,1.3
2018-01-25T00:44:56.964Z,1.1
2018-01-25T00:45:58.584Z,1.1
2018-01-25T00:47:00.202Z,1.2
2018-01-25T00:48:01.810Z,1.3
2018-01-25T00:49:03.424Z,1.4
2018-01-25T00:50:05.041Z,1.2
2018-01-25T00:51:06.646Z,1.3
2018-01-25T00:52:08.260Z,1.3
2018-01-25T00:53:09.874Z,1.4
2018-01-25T00:54:11.545Z,1.4
2018-01-25T00:55:13.107Z,1.5
2018-01-25T00:56:14.727Z,1.3
2018-01-25T00:57:16.329Z,1.2
2018-01-25T00:58:17.947Z,1.5
2018-01-25T00:59:19.558Z,1.3
2018-01-25T01:00:21.175Z,0.9
2018-01-25T01:01:22.791Z,0.7
2018-01-25T01:02:24.404Z,0.8
2018-01-25T01:03:26.015Z,0.7
2018-01-25T01:04:27.627Z,0.8
2018-01-25T01:05:29.244Z,0.8
2018-01-25T01:06:30.857Z,0.7
2018-01-25T01:07:32.476Z,0.8
2018-01-25T01:08:34.091Z,0.7
2018-01-25T01:09:35.704Z,0.7
2018-01-25T01:10:37.317Z,0.7
2018-01-25T01:11:38.932Z,0.8
2018-01-25T01:12:40.544Z,0.8
2018-01-25T01:13:42.159Z,0.8
2018-01-25T01:14:43.776Z,0.8
2018-01-25T01:15:45.390Z,0.7
2018-01-25T01:16:47.005Z,0.8
2018-01-25T01:17:48.615Z,0.8
2018-01-25T01:18:50.228Z,0.7
2018-01-25T01:19:51.844Z,0.8
2018-01-25T01:20:53.457Z,0.7
2018-01-25T01:21:55.074Z,0.8
2018-01-25T01:22:56.687Z,0.7
2018-01-25T01:23:58.301Z,0.7
2018-01-25T01:24:59.914Z,0.7
2018-01-25T01:26:01.526Z,0.8
2018-01-25T01:27:03.141Z,0.6
2018-01-25T01:28:04.756Z,0.6
2018-01-25T01:29:06.372Z,0.7
2018-01-25T01:30:07.985Z,0.7
2018-01-25T01:31:09.600Z,0.7
2018-01-25T01:32:11.227Z,0.6
2018-01-25T01:33:12.840Z,0.8
2018-01-25T01:34:14.453Z,0.7
2018-01-25T01:35:16.068Z,0.7
2018-01-25T01:36:17.685Z,0.8
2018-01-25T01:37:19.302Z,0.7
2018-01-25T01:38:20.917Z,0.7
2018-01-25T01:39:22.529Z,0.7
2018-01-25T01:40:24.146Z,0.6
2018-01-25T01:41:25.755Z,0.7
2018-01-25T01:42:27.368Z,0.7
2018-01-25T01:43:28.987Z,0.7
2018-01-25T01:44:30.622Z,0.6
2018-01-25T01:45:32.237Z,0.6
2018-01-25T01:46:33.852Z,0.7
2018-01-25T01:47:35.464Z,0.7
2018-01-25T01:48:37.080Z,0.8
2018-01-25T01:49:38.693Z,0.7
2018-01-25T01:50:40.308Z,0.8
2018-01-25T01:51:41.925Z,0.8
2018-01-25T01:52:43.540Z,0.9
2018-01-25T01:53:45.152Z,0.9
2018-01-25T01:54:46.766Z,0.9
2018-01-25T01:55:48.379Z,0.8
2018-01-25T01:56:49.998Z,0.9
2018-01-25T01:57:51.609Z,0.9
2018-01-25T01:58:53.226Z,0.9
2018-01-25T01:59:54.841Z,0.8
2018-01-25T02:00:56.459Z,0.8
2018-01-25T02:01:58.078Z,0.9
2018-01-25T02:02:59.687Z,0.9
2018-01-25T02:04:01.303Z,1.0
2018-01-25T02:05:02.916Z,0.9
2018-01-25T02:06:04.531Z,1.1
2018-01-25T02:07:06.143Z,0.9
2018-01-25T02:08:07.763Z,1.0
2018-01-25T02:09:09.370Z,1.0
2018-01-25T02:10:10.983Z,1.0
2018-01-25T02:11:12.598Z,0.9
2018-01-25T02:12:14.213Z,1.1
2018-01-25T02:13:15.827Z,1.2
2018-01-25T02:14:17.438Z,1.1
2018-01-25T02:15:19.051Z,1.2
2018-01-25T02:16:20.663Z,1.3
2018-01-25T02:17:22.279Z,1.2
2018-01-25T02:18:23.891Z,1.2
2018-01-25T02:19:25.507Z,1.3
2018-01-25T02:20:27.118Z,1.3
2018-01-25T02:21:28.730Z,1.3
2018-01-25T02:22:30.343Z,1.3
2018-01-25T02:23:31.954Z,1.4
2018-01-25T02:24:33.571Z,1.3
2018-01-25T02:25:35.185Z,1.3
2018-01-25T02:26:36.798Z,1.5
2018-01-25T02:27:38.412Z,1.5
2018-01-25T02:28:40.024Z,1.7
2018-01-25T02:29:41.636Z,1.6
2018-01-25T02:30:43.250Z,1.7
2018-01-25T02:31:44.868Z,1.6
2018-01-25T02:32:46.477Z,1.5
2018-01-25T02:33:48.092Z,1.7
2018-01-25T02:34:49.706Z,1.9
2018-01-25T02:35:51.320Z,1.7
2018-01-25T02:36:52.932Z,1.7
2018-01-25T02:37:54.543Z,1.9
2018-01-25T02:38:56.157Z,1.8
2018-01-25T02:39:57.769Z,1.8
2018-01-25T02:40:59.383Z,1.7
2018-01-25T02:42:00.994Z,1.4
2018-01-25T02:43:02.607Z,1.4
2018-01-25T02:44:04.226Z,1.3
2018-01-25T02:45:05.838Z,1.2
2018-01-25T02:46:07.451Z,1.1
2018-01-25T02:47:09.063Z,1.1
2018-01-25T02:48:10.679Z,1.1
2018-01-25T02:49:12.291Z,1.0
2018-01-25T02:50:13.900Z,1.0
2018-01-25T02:51:15.551Z,1.2
2018-01-25T02:52:17.127Z,1.0
2018-01-25T02:53:18.737Z,1.1
2018-01-25T02:54:20.353Z,1.2
2018-01-25T02:55:21.963Z,0.9
2018-01-25T02:56:23.575Z,0.9
2018-01-25T02:57:25.187Z,0.8
2018-01-25T02:58:26.803Z,0.7
2018-01-25T02:59:28.413Z,0.8
2018-01-25T03:00:30.072Z,0.6
2018-01-25T03:01:31.687Z,0.6
2018-01-25T03:02:33.251Z,0.7
2018-01-25T03:03:34.866Z,0.6
2018-01-25T03:04:36.477Z,0.7
2018-01-25T03:05:38.090Z,0.6
2018-01-25T03:06:39.703Z,0.6
2018-01-25T03:07:41.313Z,0.5
2018-01-25T03:08:42.924Z,0.6
2018-01-25T03:09:44.537Z,0.6
2018-01-25T03:10:46.152Z,0.6
2018-01-25T03:11:47.763Z,0.7
2018-01-25T03:12:49.376Z,0.7
2018-01-25T03:13:50.985Z,0.7
2018-01-25T03:14:52.598Z,0.7
2018-01-25T03:15:54.208Z,0.8
2018-01-25T03:16:55.820Z,0.8
2018-01-25T03:17:57.432Z,0.8
2018-01-25T03:18:59.049Z,0.8
2018-01-25T03:20:00.656Z,0.7
2018-01-25T03:21:02.267Z,0.6
2018-01-25T03:22:03.878Z,0.6
2018-01-25T03:23:05.495Z,0.7
2018-01-25T03:24:07.105Z,0.7
2018-01-25T03:25:08.715Z,0.7
2018-01-25T03:26:10.328Z,0.6
2018-01-25T03:27:11.941Z,0.8
2018-01-25T03:28:13.551Z,0.6
2018-01-25T03:29:15.163Z,0.6
2018-01-25T03:30:16.774Z,0.7
2018-01-25T03:31:18.387Z,0.8
2018-01-25T03:32:19.999Z,0.9
2018-01-25T03:33:21.611Z,0.8
2018-01-25T03:34:23.227Z,0.7
2018-01-25T03:35:24.835Z,0.9
2018-01-25T03:36:26.446Z,0.9
2018-01-25T03:37:28.057Z,1.0
2018-01-25T03:38:29.672Z,0.9
2018-01-25T03:39:31.291Z,1.0
2018-01-25T03:40:32.899Z,1.0
2018-01-25T03:41:34.509Z,1.0
2018-01-25T03:42:36.119Z,0.9
2018-01-25T03:43:37.729Z,1.0
2018-01-25T03:44:39.341Z,0.8
2018-01-25T03:45:40.954Z,0.8
2018-01-25T03:46:42.568Z,0.9
2018-01-25T03:47:44.180Z,0.9
2018-01-25T03:48:45.792Z,0.8
2018-01-25T03:49:47.402Z,0.9
2018-01-25T03:50:49.020Z,0.9
2018-01-25T03:51:50.627Z,0.8
2018-01-25T03:52:52.238Z,0.8
2018-01-25T03:53:53.852Z,0.7
2018-01-25T03:54:55.464Z,0.8
2018-01-25T03:55:57.075Z,0.8
2018-01-25T03:56:58.686Z,0.8
2018-01-25T03:58:00.298Z,0.7
2018-01-25T03:59:01.910Z,0.9
2018-01-25T04:00:03.523Z,0.8
2018-01-25T04:01:05.136Z,1.0
2018-01-25T04:02:06.748Z,0.9
2018-01-25T04:03:08.363Z,0.9
2018-01-25T04:04:09.966Z,0.9
2018-01-25T04:05:11.579Z,1.0
2018-01-25T04:06:13.190Z,0.9
2018-01-25T04:07:14.801Z,1.0
2018-01-25T04:08:16.414Z,0.9
2018-01-25T04:09:18.027Z,0.9
2018-01-25T04:10:19.639Z,0.9
2018-01-25T04:11:21.251Z,1.0
2018-01-25T04:12:22.863Z,1.0
2018-01-25T04:13:24.474Z,1.0
2018-01-25T04:14:26.088Z,1.0
2018-01-25T04:15:27.701Z,1.0
2018-01-25T04:16:29.316Z,1.1
2018-01-25T04:17:30.924Z,1.0
2018-01-25T04:18:32.535Z,1.0
2018-01-25T04:19:34.146Z,1.1
2018-01-25T04:20:35.757Z,1.2
2018-01-25T04:21:37.375Z,1.1
2018-01-25T04:22:38.982Z,1.1
2018-01-25T04:23:40.597Z,1.2
2018-01-25T04:24:42.205Z,1.1
2018-01-25T04:25:43.815Z,1.1
2018-01-25T04:26:45.428Z,1.1
2018-01-25T04:27:47.039Z,1.3
2018-01-25T04:28:48.651Z,1.1
2018-01-25T04:29:50.265Z,1.1
2018-01-25T04:30:51.882Z,1.0
2018-01-25T04:31:53.487Z,1.1
2018-01-25T04:32:55.097Z,1.1
2018-01-25T04:33:56.709Z,1.2
2018-01-25T04:34:58.320Z,1.0
2018-01-25T04:35:59.931Z,1.0
2018-01-25T04:37:01.547Z,1.2
2018-01-25T04:38:03.160Z,1.0
2018-01-25T04:39:04.770Z,1.1
2018-01-25T04:40:06.378Z,1.0
2018-01-25T04:41:07.991Z,1.1
2018-01-25T04:42:09.603Z,1.3
2018-01-25T04:43:11.216Z,1.1
2018-01-25T04:44:12.830Z,1.0
2018-01-25T04:45:14.441Z,1.1
2018-01-25T04:46:16.052Z,1.1
2018-01-25T04:47:17.661Z,1.0
2018-01-25T04:48:19.272Z,1.0
2018-01-25T04:49:20.884Z,1.0
2018-01-25T04:50:22.496Z,1.1
2018-01-25T04:51:24.109Z,1.0
2018-01-25T04:52:25.724Z,0.9
2018-01-25T04:53:27.334Z,1.0
2018-01-25T04:54:28.944Z,1.0
2018-01-25T04:55:30.555Z,1.1
2018-01-25T04:56:32.169Z,1.0
2018-01-25T04:57:33.782Z,1.0
2018-01-25T04:58:35.395Z,1.2
2018-01-25T04:59:37.007Z,1.2
2018-01-25T05:00:38.616Z,1.0
2018-01-25T05:01:40.228Z,1.1
2018-01-25T05:02:41.840Z,1.1
2018-01-25T05:03:43.450Z,1.1
2018-01-25T05:04:45.065Z,1.2
2018-01-25T05:05:46.679Z,1.0
2018-01-25T05:06:48.289Z,1.2
2018-01-25T05:07:49.899Z,1.1
2018-01-25T05:08:51.510Z,1.0
2018-01-25T05:09:53.122Z,1.1
2018-01-25T05:10:54.732Z,1.0
2018-01-25T05:11:56.435Z,1.4
2018-01-25T05:12:58.050Z,1.1
2018-01-25T05:13:59.658Z,1.0
2018-01-25T05:15:01.268Z,1.1
2018-01-25T05:16:02.878Z,1.1
2018-01-25T05:17:04.489Z,0.9
2018-01-25T05:18:06.110Z,1.1
2018-01-25T05:19:07.715Z,1.2
2018-01-25T05:20:09.328Z,1.3
2018-01-25T05:21:10.941Z,1.2
2018-01-25T05:22:12.550Z,1.3
2018-01-25T05:23:14.160Z,1.2
2018-01-25T05:24:15.772Z,1.1
2018-01-25T05:25:17.383Z,1.3
2018-01-25T05:26:18.998Z,1.2
2018-01-25T05:27:20.613Z,1.3
2018-01-25T05:28:22.234Z,1.6
2018-01-25T05:29:23.838Z,1.1
2018-01-25T05:30:25.446Z,1.3
2018-01-25T05:31:27.057Z,1.4
2018-01-25T05:32:28.668Z,1.3
2018-01-25T05:33:30.282Z,1.2
2018-01-25T05:34:31.895Z,1.2
2018-01-25T05:35:33.549Z,1.2
2018-01-25T05:36:35.117Z,1.3
2018-01-25T05:37:36.875Z,1.4
2018-01-25T05:38:38.525Z,1.5
2018-01-25T05:39:40.136Z,1.6
2018-01-25T05:40:41.750Z,1.2
2018-01-25T05:41:43.363Z,1.2
2018-01-25T05:42:44.973Z,1.5
2018-01-25T05:43:46.585Z,1.3
2018-01-25T05:44:48.193Z,1.3
2018-01-25T05:45:49.811Z,1.4
2018-01-25T05:46:51.423Z,1.4
2018-01-25T05:47:53.042Z,1.5
2018-01-25T05:48:54.663Z,1.4
2018-01-25T05:49:56.273Z,1.8
2018-01-25T05:50:57.885Z,1.5
2018-01-25T05:51:59.526Z,1.7
2018-01-25T05:53:01.111Z,1.6
2018-01-25T05:54:02.723Z,2.1
2018-01-25T05:55:04.336Z,2.0
2018-01-25T05:56:05.948Z,1.8
2018-01-25T05:57:07.559Z,1.6
2018-01-25T05:58:09.173Z,1.7
2018-01-25T05:59:10.786Z,1.9
2018-01-25T06:00:12.398Z,2.0
2018-01-25T06:01:14.010Z,1.5
2018-01-25T06:02:15.629Z,1.9
2018-01-25T06:03:17.243Z,2.0
2018-01-25T06:04:18.856Z,1.7
2018-01-25T06:05:20.469Z,1.7
2018-01-25T06:06:22.078Z,1.6
2018-01-25T06:07:23.690Z,1.7
2018-01-25T06:08:25.303Z,1.6
2018-01-25T06:09:26.915Z,1.9
2018-01-25T06:10:28.530Z,3.2
2018-01-25T06:11:30.466Z,3.2
2018-01-25T06:12:32.037Z,2.3
2018-01-25T06:13:33.649Z,2.5
2018-01-25T06:14:35.264Z,3.0
2018-01-25T06:15:36.875Z,3.8
2018-01-25T06:16:38.489Z,3.8
2018-01-25T06:17:40.102Z,4.6
2018-01-25T06:18:41.712Z,3.7
2018-01-25T06:19:43.325Z,3.9
2018-01-25T06:20:44.936Z,2.5
2018-01-25T06:21:46.551Z,2.2
2018-01-25T06:22:48.164Z,1.9
2018-01-25T06:23:49.775Z,1.9
2018-01-25T06:24:51.389Z,1.9
2018-01-25T06:25:52.999Z,2.0
2018-01-25T06:26:54.610Z,2.0
2018-01-25T06:27:56.223Z,2.0
2018-01-25T06:28:57.838Z,2.1
2018-01-25T06:29:59.448Z,2.4
2018-01-25T06:31:01.064Z,2.4
2018-01-25T06:32:02.675Z,3.0
2018-01-25T06:33:04.290Z,2.6
2018-01-25T06:34:05.904Z,3.4
2018-01-25T06:35:07.517Z,3.4
2018-01-25T06:36:09.126Z,3.8
2018-01-25T06:37:10.743Z,3.5
2018-01-25T06:38:12.356Z,3.9
2018-01-25T06:39:13.973Z,3.5
2018-01-25T06:40:15.603Z,3.7
2018-01-25T06:41:17.194Z,3.7
2018-01-25T06:42:18.804Z,3.1
2018-01-25T06:43:20.420Z,3.2
2018-01-25T06:44:22.029Z,3.1
2018-01-25T06:45:23.645Z,3.7
2018-01-25T06:46:25.258Z,3.4
2018-01-25T06:47:26.871Z,3.3
2018-01-25T06:48:28.484Z,3.3
2018-01-25T06:49:30.094Z,3.8
2018-01-25T06:50:31.707Z,3.1
2018-01-25T06:51:33.319Z,2.8
2018-01-25T06:52:34.943Z,2.8
2018-01-25T06:53:36.557Z,3.0
2018-01-25T06:54:38.166Z,2.8
2018-01-25T06:55:39.781Z,3.1
2018-01-25T06:56:41.397Z,3.1
2018-01-25T06:57:43.013Z,2.7
2018-01-25T06:58:44.628Z,2.7
2018-01-25T06:59:46.242Z,3.2
2018-01-25T07:00:47.855Z,2.9
2018-01-25T07:01:49.465Z,3.4
2018-01-25T07:02:51.076Z,3.0
2018-01-25T07:03:52.691Z,3.1
2018-01-25T07:04:54.306Z,3.7
2018-01-25T07:05:55.920Z,2.8
2018-01-25T07:06:57.534Z,3.2
2018-01-25T07:07:59.152Z,3.5
2018-01-25T07:09:00.767Z,3.1
2018-01-25T07:10:02.378Z,3.5
2018-01-25T07:11:03.991Z,3.3
2018-01-25T07:12:05.608Z,3.1
2018-01-25T07:13:07.219Z,3.1
2018-01-25T07:14:08.836Z,3.2
2018-01-25T07:15:10.478Z,3.1
2018-01-25T07:16:12.093Z,3.6
2018-01-25T07:17:13.718Z,3.5
2018-01-25T07:18:15.434Z,3.0
2018-01-25T07:19:17.166Z,3.4
2018-01-25T07:20:18.807Z,3.7
2018-01-25T07:21:20.427Z,3.8
2018-01-25T07:22:22.154Z,3.4
2018-01-25T07:23:23.791Z,4.4
2018-01-25T07:24:25.486Z,4.8
2018-01-25T07:25:27.179Z,4.6
2018-01-25T07:26:28.916Z,5.1
2018-01-25T07:27:30.623Z,4.9
2018-01-25T07:28:32.332Z,4.3
2018-01-25T07:29:34.090Z,3.9
2018-01-25T07:30:35.804Z,4.1
2018-01-25T07:31:37.488Z,4.1
2018-01-25T07:32:39.191Z,4.2
2018-01-25T07:33:40.861Z,4.2
2018-01-25T07:34:42.586Z,4.0
2018-01-25T07:35:44.341Z,4.3
2018-01-25T07:36:46.021Z,4.9
2018-01-25T07:37:47.723Z,5.4
2018-01-25T07:38:49.399Z,5.1
2018-01-25T07:39:51.135Z,6.0
2018-01-25T07:40:52.868Z,8.6
2018-01-25T07:41:54.581Z,10.8
2018-01-25T07:42:56.270Z,11.2
2018-01-25T07:43:57.945Z,6.8
2018-01-25T07:44:59.704Z,5.2
2018-01-25T07:46:01.389Z,5.3
2018-01-25T07:47:02.992Z,5.4
2018-01-25T07:48:04.775Z,5.0
2018-01-25T07:49:06.465Z,5.2
2018-01-25T07:50:08.169Z,5.2
2018-01-25T07:51:09.887Z,5.2
2018-01-25T07:52:11.642Z,5.3
2018-01-25T07:53:13.334Z,5.3
2018-01-25T07:54:15.054Z,5.8
2018-01-25T07:55:16.766Z,5.7
2018-01-25T07:56:18.544Z,5.3
2018-01-25T07:57:20.289Z,5.9
2018-01-25T07:58:21.939Z,6.1
2018-01-25T07:59:23.688Z,5.4
2018-01-25T08:00:25.431Z,6.2
2018-01-25T08:01:27.135Z,6.1
2018-01-25T08:02:28.886Z,6.5
2018-01-25T08:03:30.604Z,6.1
2018-01-25T08:04:32.286Z,6.8
2018-01-25T08:05:33.933Z,6.8
2018-01-25T08:06:35.578Z,6.9
2018-01-25T08:07:37.316Z,7.6
2018-01-25T08:08:38.965Z,7.3
2018-01-25T08:09:40.700Z,7.5
2018-01-25T08:10:42.328Z,8.0
2018-01-25T08:11:43.972Z,7.4
2018-01-25T08:12:45.679Z,8.7
2018-01-25T08:13:47.330Z,8.3
2018-01-25T08:14:49.010Z,8.4
2018-01-25T08:15:50.627Z,8.8
2018-01-25T08:16:52.353Z,8.9
2018-01-25T08:17:54.098Z,8.8
2018-01-25T08:18:55.834Z,9.1
2018-01-25T08:19:57.582Z,9.7
2018-01-25T08:20:59.263Z,9.1
2018-01-25T08:22:00.972Z,9.0
2018-01-25T08:23:02.614Z,9.6
2018-01-25T08:24:04.420Z,9.0
2018-01-25T08:25:06.133Z,9.4
2018-01-25T08:26:07.817Z,8.8
2018-01-25T08:27:09.503Z,10.0
2018-01-25T08:28:11.334Z,9.5
2018-01-25T08:29:12.973Z,9.1
2018-01-25T08:30:14.728Z,9.1
2018-01-25T08:31:16.450Z,9.3
2018-01-25T08:32:18.198Z,9.6
2018-01-25T08:33:19.847Z,10.0
2018-01-25T08:34:21.546Z,9.9
2018-01-25T08:35:23.243Z,10.1
2018-01-25T08:36:24.941Z,9.7
2018-01-25T08:37:26.684Z,9.2
2018-01-25T08:38:28.411Z,9.4
2018-01-25T08:39:30.146Z,9.9
2018-01-25T08:40:31.824Z,9.1
2018-01-25T08:41:33.492Z,9.4
2018-01-25T08:42:35.139Z,9.2
2018-01-25T08:43:36.843Z,9.0
2018-01-25T08:44:38.529Z,8.0
2018-01-25T08:45:40.311Z,9.0
2018-01-25T08:46:42.033Z,8.3
2018-01-25T08:47:43.760Z,9.5
2018-01-25T08:48:45.517Z,8.8
2018-01-25T08:49:47.207Z,8.6
2018-01-25T08:50:48.902Z,8.4
2018-01-25T08:51:50.556Z,8.4
2018-01-25T08:52:52.301Z,8.7
2018-01-25T08:53:54.134Z,8.3
2018-01-25T08:54:55.921Z,9.6
2018-01-25T08:55:57.557Z,8.4
2018-01-25T08:56:59.340Z,8.2
2018-01-25T08:58:00.971Z,8.1
2018-01-25T08:59:02.627Z,8.2
2018-01-25T09:00:04.406Z,8.5
2018-01-25T09:01:06.087Z,8.0
2018-01-25T09:02:07.843Z,8.1
2018-01-25T09:03:09.530Z,7.8
2018-01-25T09:04:11.243Z,8.9
2018-01-25T09:05:12.914Z,8.2
2018-01-25T09:06:14.624Z,8.0
2018-01-25T09:07:16.267Z,8.2
2018-01-25T09:08:17.919Z,8.3
2018-01-25T09:09:19.612Z,8.4
2018-01-25T09:10:21.262Z,8.8
2018-01-25T09:11:22.978Z,8.2
2018-01-25T09:12:24.671Z,8.2
2018-01-25T09:13:26.364Z,8.3
2018-01-25T09:14:28.116Z,8.2
2018-01-25T09:15:29.837Z,9.0
2018-01-25T09:16:31.553Z,8.7
2018-01-25T09:17:33.203Z,8.6
2018-01-25T09:18:34.973Z,9.1
2018-01-25T09:19:36.690Z,9.6
2018-01-25T09:20:38.459Z,9.2
2018-01-25T09:21:40.223Z,9.0
2018-01-25T09:22:41.883Z,9.2
2018-01-25T09:23:43.599Z,9.1
2018-01-25T09:24:45.234Z,9.0
2018-01-25T09:25:46.971Z,9.6
2018-01-25T09:26:48.671Z,9.4
2018-01-25T09:27:50.299Z,9.0
2018-01-25T09:28:52.113Z,9.3
2018-01-25T09:29:53.836Z,9.5
2018-01-25T09:30:55.481Z,9.4
2018-01-25T09:31:57.186Z,9.5
2018-01-25T09:32:58.871Z,9.6
2018-01-25T09:34:00.588Z,9.6
2018-01-25T09:35:02.253Z,10.2
2018-01-25T09:36:04.018Z,10.2
2018-01-25T09:37:05.781Z,9.6
2018-01-25T09:38:07.511Z,10.1
2018-01-25T09:39:09.235Z,9.8
2018-01-25T09:40:10.858Z,9.8
2018-01-25T09:41:12.626Z,10.3
2018-01-25T09:42:14.209Z,10.2
2018-01-25T09:43:15.969Z,10.5
2018-01-25T09:44:17.690Z,11.1
2018-01-25T09:45:19.392Z,10.7
2018-01-25T09:46:21.186Z,10.8
2018-01-25T09:47:22.858Z,11.1
2018-01-25T09:48:24.613Z,11.4
2018-01-25T09:49:26.266Z,11.2
2018-01-25T09:50:27.923Z,11.0
2018-01-25T09:51:29.650Z,12.2
2018-01-25T09:52:31.422Z,11.1
2018-01-25T09:53:33.101Z,11.3
2018-01-25T09:54:34.837Z,11.0
2018-01-25T09:55:36.563Z,11.4
2018-01-25T09:56:38.284Z,11.6
2018-01-25T09:57:40.056Z,11.2
2018-01-25T09:58:41.752Z,10.9
2018-01-25T09:59:43.496Z,11.4
2018-01-25T10:00:45.270Z,11.7
2018-01-25T10:01:47.040Z,12.2
2018-01-25T10:02:48.714Z,11.5
2018-01-25T10:03:50.432Z,11.2
2018-01-25T10:04:52.169Z,11.2
2018-01-25T10:05:53.890Z,11.5
2018-01-25T10:06:55.626Z,11.9
2018-01-25T10:07:57.276Z,11.2
2018-01-25T10:08:58.971Z,11.8
2018-01-25T10:10:00.692Z,11.3
2018-01-25T10:11:02.464Z,11.5
2018-01-25T10:12:04.277Z,10.8
2018-01-25T10:13:06.014Z,11.0
2018-01-25T10:14:07.731Z,11.2
2018-01-25T10:15:09.434Z,10.7
2018-01-25T10:16:11.224Z,10.4
2018-01-25T10:17:12.868Z,10.1
2018-01-25T10:18:14.801Z,10.1
2018-01-25T10:19:16.361Z,10.5
2018-01-25T10:20:18.147Z,10.2
2018-01-25T10:21:19.915Z,11.0
2018-01-25T10:22:21.621Z,9.6
2018-01-25T10:23:23.248Z,9.4
2018-01-25T10:24:24.981Z,9.7
2018-01-25T10:25:26.685Z,9.6
2018-01-25T10:26:28.422Z,9.2
2018-01-25T10:27:30.160Z,9.0
2018-01-25T10:28:31.912Z,9.5
2018-01-25T10:29:33.539Z,9.1
2018-01-25T10:30:35.291Z,8.8
2018-01-25T10:31:37.046Z,9.0
2018-01-25T10:32:38.818Z,8.7
2018-01-25T10:33:40.659Z,8.7
2018-01-25T10:34:42.398Z,8.6
2018-01-25T10:35:44.163Z,9.5
2018-01-25T10:36:45.881Z,8.6
2018-01-25T10:37:47.654Z,8.5
2018-01-25T10:38:49.394Z,8.9
2018-01-25T10:39:51.169Z,8.4
2018-01-25T10:40:52.938Z,8.8
2018-01-25T10:41:54.592Z,8.5
2018-01-25T10:42:56.339Z,8.1
2018-01-25T10:43:58.065Z,8.8
2018-01-25T10:44:59.686Z,8.4
2018-01-25T10:46:01.378Z,8.6
2018-01-25T10:47:03.101Z,8.6
2018-01-25T10:48:04.855Z,9.2
2018-01-25T10:49:06.596Z,8.6
2018-01-25T10:50:08.317Z,8.7
2018-01-25T10:51:09.948Z,8.7
2018-01-25T10:52:11.667Z,8.7
2018-01-25T10:53:13.294Z,8.1
2018-01-25T10:54:15.015Z,7.6
2018-01-25T10:55:16.722Z,8.9
2018-01-25T10:56:18.456Z,8.6
2018-01-25T10:57:20.136Z,8.4
2018-01-25T10:58:21.897Z,8.8
2018-01-25T10:59:23.525Z,8.5
2018-01-25T11:00:25.279Z,9.1
2018-01-25T11:01:27.011Z,9.0
2018-01-25T11:02:28.766Z,9.4
2018-01-25T11:03:30.526Z,9.1
2018-01-25T11:04:32.259Z,9.8
2018-01-25T11:05:34.065Z,9.4
2018-01-25T11:06:35.793Z,9.6
2018-01-25T11:07:37.509Z,9.6
2018-01-25T11:08:39.257Z,10.3
2018-01-25T11:09:40.962Z,10.2
2018-01-25T11:10:42.691Z,11.4
2018-01-25T11:11:44.389Z,11.4
2018-01-25T11:12:46.150Z,10.8
2018-01-25T11:13:47.892Z,10.8
2018-01-25T11:14:49.610Z,10.7
2018-01-25T11:15:51.326Z,10.5
2018-01-25T11:16:53.061Z,10.3
2018-01-25T11:17:54.704Z,10.2
2018-01-25T11:18:56.427Z,9.3
2018-01-25T11:19:58.058Z,9.9
2018-01-25T11:20:59.830Z,10.2
2018-01-25T11:22:01.539Z,10.3
2018-01-25T11:23:03.290Z,9.5
2018-01-25T11:24:04.971Z,9.7
2018-01-25T11:25:06.591Z,9.4
2018-01-25T11:26:08.313Z,8.8
2018-01-25T11:27:09.954Z,8.6
2018-01-25T11:28:11.601Z,8.6
2018-01-25T11:29:13.284Z,9.4
2018-01-25T11:30:14.915Z,9.1
2018-01-25T11:31:16.659Z,8.6
2018-01-25T11:32:18.435Z,8.2
2018-01-25T11:33:20.151Z,9.0
2018-01-25T11:34:21.916Z,8.8
2018-01-25T11:35:23.609Z,8.8
2018-01-25T11:36:27.015Z,8.3
2018-01-25T11:37:28.733Z,7.4
2018-01-25T11:38:30.461Z,8.1
2018-01-25T11:39:32.168Z,7.5
2018-01-25T11:40:33.892Z,7.8
2018-01-25T11:41:35.578Z,7.7
2018-01-25T11:42:37.199Z,7.8
2018-01-25T11:43:38.921Z,7.1
2018-01-25T11:44:40.696Z,7.1
2018-01-25T11:45:42.320Z,6.9
2018-01-25T11:46:43.978Z,6.4
2018-01-25T11:47:45.669Z,6.5
2018-01-25T11:48:47.423Z,6.2
2018-01-25T11:49:49.130Z,6.2
2018-01-25T11:50:50.833Z,6.9
2018-01-25T11:51:52.571Z,5.8
2018-01-25T11:52:54.332Z,5.6
2018-01-25T11:53:56.077Z,5.4
2018-01-25T11:54:57.811Z,5.3
2018-01-25T11:55:59.599Z,4.9
2018-01-25T11:57:01.243Z,5.1
2018-01-25T11:58:02.916Z,4.5
2018-01-25T11:59:04.566Z,4.4
2018-01-25T12:00:06.278Z,4.5
2018-01-25T12:01:08.023Z,4.4
2018-01-25T12:02:09.784Z,4.6
2018-01-25T12:03:11.578Z,4.5
2018-01-25T12:04:13.308Z,4.1
2018-01-25T12:05:15.050Z,5.0
2018-01-25T12:06:16.755Z,5.2
2018-01-25T12:07:18.464Z,4.9
2018-01-25T12:08:20.223Z,4.5
2018-01-25T12:09:21.838Z,5.1
2018-01-25T12:10:23.581Z,4.6
2018-01-25T12:11:25.243Z,5.0
2018-01-25T12:12:26.939Z,3.9
2018-01-25T12:13:28.682Z,4.7
2018-01-25T12:14:30.431Z,4.1
2018-01-25T12:15:32.109Z,3.7
2018-01-25T12:16:33.885Z,3.8
2018-01-25T12:17:35.621Z,3.9
2018-01-25T12:18:37.323Z,4.0
2018-01-25T12:19:39.014Z,3.9
2018-01-25T12:20:40.730Z,3.7
2018-01-25T12:21:42.448Z,3.8
2018-01-25T12:22:44.141Z,3.6
2018-01-25T12:23:45.878Z,3.7
2018-01-25T12:24:47.631Z,3.7
2018-01-25T12:25:49.255Z,3.9
2018-01-25T12:26:50.883Z,3.5
2018-01-25T12:27:52.637Z,3.1
2018-01-25T12:28:54.349Z,4.2
2018-01-25T12:29:56.102Z,3.6
2018-01-25T12:30:57.832Z,3.3
2018-01-25T12:31:59.564Z,4.0
2018-01-25T12:33:01.288Z,3.4
2018-01-25T12:34:02.986Z,2.9
2018-01-25T12:35:04.708Z,3.5
2018-01-25T12:36:06.343Z,3.2
2018-01-25T12:37:08.082Z,4.2
2018-01-25T12:38:09.782Z,3.6
2018-01-25T12:39:11.414Z,4.6
2018-01-25T12:40:13.049Z,4.8
2018-01-25T12:41:14.756Z,5.8
2018-01-25T12:42:16.466Z,5.9
2018-01-25T12:43:18.096Z,5.0
2018-01-25T12:44:19.799Z,5.4
2018-01-25T12:45:21.601Z,5.1
2018-01-25T12:46:23.304Z,4.3
2018-01-25T12:47:24.977Z,3.7
2018-01-25T12:48:26.635Z,5.1
2018-01-25T12:49:28.350Z,4.2
2018-01-25T12:50:30.055Z,4.3
2018-01-25T12:51:31.708Z,4.5
2018-01-25T12:52:33.438Z,4.0
2018-01-25T12:53:35.190Z,3.9
2018-01-25T12:54:36.890Z,4.1
2018-01-25T12:55:38.525Z,4.6
2018-01-25T12:56:40.153Z,3.2
2018-01-25T12:57:41.850Z,2.5
2018-01-25T12:58:43.600Z,3.3
2018-01-25T12:59:45.246Z,4.3
2018-01-25T13:00:46.889Z,4.4
2018-01-25T13:01:48.610Z,3.4
2018-01-25T13:02:50.337Z,4.2
2018-01-25T13:03:52.081Z,4.9
2018-01-25T13:04:53.717Z,5.1
2018-01-25T13:05:55.403Z,4.9
2018-01-25T13:06:57.112Z,4.1
2018-01-25T13:07:58.839Z,6.1
2018-01-25T13:09:00.623Z,5.2
2018-01-25T13:10:02.288Z,5.7
2018-01-25T13:11:04.025Z,4.3
2018-01-25T13:12:05.779Z,5.0
2018-01-25T13:13:07.500Z,4.5
2018-01-25T13:14:09.246Z,3.9
2018-01-25T13:15:10.901Z,3.5
2018-01-25T13:16:12.645Z,3.6
2018-01-25T13:17:14.281Z,4.8
2018-01-25T13:18:15.913Z,5.9
2018-01-25T13:19:17.657Z,4.7
2018-01-25T13:20:19.273Z,4.4
2018-01-25T13:21:20.897Z,3.2
2018-01-25T13:22:22.587Z,2.8
2018-01-25T13:23:24.326Z,5.7
2018-01-25T13:24:26.054Z,4.9
2018-01-25T13:25:27.779Z,5.3
2018-01-25T13:26:29.525Z,5.9
2018-01-25T13:27:31.252Z,7.8
2018-01-25T13:28:32.889Z,7.0
2018-01-25T13:29:34.651Z,5.3
2018-01-25T13:30:36.398Z,6.2
2018-01-25T13:31:38.071Z,6.2
2018-01-25T13:32:39.783Z,5.9
2018-01-25T13:33:41.421Z,3.2
2018-01-25T13:34:43.159Z,5.8
2018-01-25T13:35:44.864Z,2.8
2018-01-25T13:36:46.619Z,3.5
2018-01-25T13:37:48.347Z,4.7
2018-01-25T13:38:49.997Z,5.3
2018-01-25T13:39:51.749Z,3.7
2018-01-25T13:40:53.448Z,4.5
2018-01-25T13:41:55.159Z,4.1
2018-01-25T13:42:56.896Z,5.2
2018-01-25T13:43:58.529Z,5.2
2018-01-25T13:45:00.151Z,3.5
2018-01-25T13:46:01.882Z,4.6
2018-01-25T13:47:03.614Z,3.2
2018-01-25T13:48:05.390Z,4.1
2018-01-25T13:49:07.100Z,3.0
2018-01-25T13:50:08.883Z,3.5
2018-01-25T13:51:10.680Z,3.3
2018-01-25T13:52:12.429Z,3.2
2018-01-25T13:53:14.141Z,3.6
2018-01-25T13:54:15.897Z,3.5
2018-01-25T13:55:17.586Z,3.0
2018-01-25T13:56:19.284Z,3.5
2018-01-25T13:57:20.997Z,2.8
2018-01-25T13:58:22.627Z,3.1
2018-01-25T13:59:24.324Z,3.4
2018-01-25T14:00:26.082Z,2.7
2018-01-25T14:01:27.864Z,3.5
2018-01-25T14:02:29.597Z,3.2
2018-01-25T14:03:31.313Z,2.8
2018-01-25T14:04:33.032Z,3.0
2018-01-25T14:05:34.715Z,3.2
2018-01-25T14:06:36.390Z,2.8